Cape Carteret, North Carolina
Current Conditions -  °F | °C
As of 5:57 AM on Friday 19 Dec 2014 (Local Time) from KNJM Reporting Station
Overcast Overcast  
Wind Chill: 31°   Ceiling: 7000
Heat Index: 36°   Visibility: 10mi
Dew Point: 32°   Wind: 6mph
Humidity: 86%   Direction: 340°NNW
Pressure: 30.12"   Gusts: NA
Location:  34.7017°N, 77.1399°W
Report Text: KNJM 191057Z AUTO 34005KT 10SM OVC070 02/00 A3012 RMK AO2 SLP202 T00220000 $
Loading
Personal Weather Stations






























Interactive Weather Map New forecast layout! Learn more

10-Day Weather Forecast

Advertisements
Track Severe Weather on mobile